Sakura — JG5711 — position and weather

sailwx.info

Track history (hours):
 
Tides and Currents Weather Stations Pressure Air Temp Water Temp Dewpoint Dewpoint Depression Visibility Wind Speed Wind Dir Waves Ship Positions

Sakura

Last reported at 2016-Feb-07 07:18 UTC. Time now 2016-Feb-07 17:26 UTC.
Position N 35°27' E 139°40'.

Length 32 m; draft 3.6 m.

Type: Tug. MMSI: 431101178.

Date/timePositionNaut miles runAvg speedWind from/ knotsBaromVisibWave heightAir tempDewpointWater temp
2016-Feb-07 07:18N 35°27' E 139°40'0 0.0
2016-Feb-07 06:33N 35°27' E 139°40'0 0.2
2016-Feb-07 05:33N 35°27' E 139°39'1 0.8
2016-Feb-07 04:33N 35°27' E 139°40'3 3.2
2016-Feb-07 03:33N 35°25' E 139°44'5 4.9
2016-Feb-07 02:33N 35°30' E 139°47'1 1.1
2016-Feb-07 01:33N 35°29' E 139°45'1 0.7
2016-Feb-07 00:33N 35°29' E 139°46'3 2.6
2016-Feb-06 23:33N 35°28' E 139°43'1 1.3
2016-Feb-06 22:34N 35°27' E 139°43'3 2.7
2016-Feb-06 21:33N 35°27' E 139°40'0 0.0
2016-Feb-06 20:33N 35°27' E 139°40'1 0.1
2016-Feb-06 08:04N 35°27' E 139°41'713.1
2016-Feb-06 07:33N 35°29' E 139°49'8 7.9
2016-Feb-06 06:33N 35°28' E 139°58'1 0.8
2016-Feb-06 05:33N 35°29' E 139°58'2 1.9
2016-Feb-06 04:34N 35°29' E 139°56'0 0.1
2016-Feb-06 03:33N 35°29' E 139°56'2 1.9
2016-Feb-06 02:33N 35°31' E 139°56'0 0.0
2016-Feb-06 01:33N 35°31' E 139°56'2 2.4
2016-Feb-06 00:33N 35°29' E 139°54'1 0.9
2016-Feb-05 23:33N 35°29' E 139°55'0 0.0
2016-Feb-05 22:33N 35°29' E 139°55'8 8.2
2016-Feb-05 21:34N 35°29' E 139°45'3 2.9
2016-Feb-05 20:33N 35°27' E 139°42'2 0.1
2016-Feb-05 07:08N 35°27' E 139°40'0 0.0
2016-Feb-05 06:33N 35°27' E 139°40'0 0.0
2016-Feb-05 05:33N 35°27' E 139°40'0 0.0
2016-Feb-05 04:33N 35°27' E 139°40'0 0.0
2016-Feb-05 03:33N 35°27' E 139°40'0 0.0
2016-Feb-05 02:33N 35°27' E 139°40'0 0.0
2016-Feb-05 01:33N 35°27' E 139°40'0 0.0
2016-Feb-05 00:33N 35°27' E 139°40'7 7.1
2016-Feb-04 23:33N 35°30' E 139°47'7 7.0
2016-Feb-04 22:33N 35°27' E 139°40'0 0.0
2016-Feb-04 07:12N 35°27' E 139°40'0 0.0
2016-Feb-04 06:33N 35°27' E 139°40'0 0.0
2016-Feb-04 05:33N 35°27' E 139°40'0 0.0
2016-Feb-04 04:33N 35°27' E 139°40'0 0.0
2016-Feb-04 03:33N 35°27' E 139°40'0 0.0
2016-Feb-04 02:33N 35°27' E 139°40'4 4.2
2016-Feb-04 01:33N 35°30' E 139°43'3 3.2
2016-Feb-04 00:33N 35°26' E 139°44'3 3.5
2016-Feb-03 23:33N 35°27' E 139°40'0 0.0
2016-Feb-03 22:33N 35°27' E 139°40'0 0.0
2016-Feb-03 21:33N 35°27' E 139°40'0 0.0
2016-Feb-03 20:33N 35°27' E 139°40'0 0.0
2016-Feb-03 19:33N 35°27' E 139°40'0 0.0
2016-Feb-03 18:33N 35°27' E 139°40'0 0.0
2016-Feb-03 17:33N 35°27' E 139°40'0 0.0
2016-Feb-03 16:33N 35°27' E 139°40'0 0.0
2016-Feb-03 15:33N 35°27' E 139°40'0 0.0
2016-Feb-03 14:33N 35°27' E 139°40'0 0.0
2016-Feb-03 13:33N 35°27' E 139°40'0 0.0
2016-Feb-03 12:33N 35°27' E 139°40'0 0.0
2016-Feb-03 11:33N 35°27' E 139°40'0 0.0
2016-Feb-03 10:33N 35°27' E 139°40'0 0.0
2016-Feb-03 09:33N 35°27' E 139°40'0 0.0
2016-Feb-03 08:33N 35°27' E 139°40'0 0.0
2016-Feb-03 07:33N 35°27' E 139°40'0 0.0
2016-Feb-03 06:34N 35°27' E 139°40'0 0.0
2016-Feb-03 05:33N 35°27' E 139°40'0 0.0
2016-Feb-03 04:33N 35°27' E 139°40'0 0.0
2016-Feb-03 03:34N 35°27' E 139°40'0 0.0
2016-Feb-03 02:34N 35°27' E 139°40'0 0.0
2016-Feb-03 01:34N 35°27' E 139°40'0 0.0
2016-Feb-03 00:33N 35°27' E 139°40'0 0.0
2016-Feb-02 23:33N 35°27' E 139°40'1 1.2
2016-Feb-02 22:34N 35°27' E 139°41'2 1.8
2016-Feb-02 21:34N 35°25' E 139°42'2 2.5
2016-Feb-02 20:34N 35°27' E 139°40'1 0.1
2016-Feb-02 08:21N 35°27' E 139°40'1 1.4
2016-Feb-02 07:34N 35°26' E 139°41'1 1.4
2016-Feb-02 06:34N 35°28' E 139°41'0 0.0
2016-Feb-02 05:34N 35°28' E 139°41'3 3.1
2016-Feb-02 04:34N 35°30' E 139°43'2 1.8
2016-Feb-02 03:34N 35°28' E 139°42'2 2.2
2016-Feb-02 02:34N 35°27' E 139°40'0 0.2
2016-Feb-02 01:34N 35°27' E 139°40'0 0.0
2016-Feb-02 00:33N 35°27' E 139°40'0 0.0
2016-Feb-01 23:33N 35°27' E 139°40'0 0.0
2016-Feb-01 22:33N 35°27' E 139°40'0 0.0
2016-Jan-31 23:33N 35°27' E 139°39'5 5.1
2016-Jan-31 22:33N 35°29' E 139°45'4 3.9
2016-Jan-31 21:34N 35°26' E 139°43'3 3.3
2016-Jan-31 20:33N 35°23' E 139°40'0 0.0
2016-Jan-31 19:33N 35°23' E 139°40'0 0.0
2016-Jan-31 18:33N 35°23' E 139°40'0 0.0
2016-Jan-31 17:33N 35°23' E 139°40'0 0.0
2016-Jan-31 16:33N 35°23' E 139°40'0 0.0
2016-Jan-31 15:33N 35°23' E 139°40'1 1.0
2016-Jan-31 14:34N 35°24' E 139°41'3 2.6
2016-Jan-31 13:33N 35°27' E 139°41'2 1.6
2016-Jan-31 12:33N 35°27' E 139°39'0 0.0
2016-Jan-31 11:33N 35°27' E 139°39'0 0.0
2016-Jan-31 10:33N 35°27' E 139°39'2 1.7
2016-Jan-31 09:33N 35°28' E 139°41'2 2.5
2016-Jan-31 08:33N 35°26' E 139°44'4 3.8
2016-Jan-31 07:33N 35°27' E 139°39'0 0.0
2016-Jan-31 06:33N 35°27' E 139°39'0 0.0
2016-Jan-31 05:33N 35°27' E 139°39'1 0.6
2016-Jan-31 04:33N 35°28' E 139°39'4 3.7
2016-Jan-31 03:33N 35°24' E 139°39'2 2.3
2016-Jan-31 02:33N 35°24' E 139°41'4 3.7
2016-Jan-31 01:33N 35°27' E 139°39'1 0.7
2016-Jan-31 00:33N 35°27' E 139°39'0 0.0
2016-Jan-30 23:33N 35°27' E 139°39'0 0.0
2016-Jan-30 22:33N 35°27' E 139°39'0 0.0
2016-Jan-30 21:33N 35°27' E 139°39'4 0.3
2016-Jan-30 07:34N 35°24' E 139°41'3 2.8
2016-Jan-30 06:34N 35°24' E 139°38'3 3.2
2016-Jan-30 05:33N 35°22' E 139°41'3 3.0
2016-Jan-30 04:33N 35°25' E 139°42'3 3.0
2016-Jan-30 03:34N 35°28' E 139°42'2 1.7
2016-Jan-30 02:33N 35°28' E 139°41'0 0.0
2016-Jan-30 01:33N 35°28' E 139°41'0 0.0
2016-Jan-30 00:34N 35°28' E 139°41'2 1.6
2016-Jan-29 23:33N 35°29' E 139°39'1 1.5
2016-Jan-29 22:33N 35°28' E 139°40'2 1.5
2016-Jan-29 21:33N 35°26' E 139°41'2 2.1
2016-Jan-29 20:34N 35°27' E 139°39'0 0.0
2016-Jan-29 09:32N 35°27' E 139°39'3 2.6
2016-Jan-29 08:33N 35°25' E 139°41'2 2.2
2016-Jan-29 07:33N 35°28' E 139°40'0 0.0
2016-Jan-29 06:33N 35°28' E 139°40'1 1.3
2016-Jan-29 05:34N 35°27' E 139°41'4 3.8
2016-Jan-29 04:33N 35°24' E 139°38'1 1.3
2016-Jan-29 03:33N 35°24' E 139°40'3 2.6
2016-Jan-29 02:33N 35°26' E 139°42'3 2.9
2016-Jan-29 01:33N 35°27' E 139°39'0 0.0
2016-Jan-29 00:33N 35°27' E 139°39'0 0.0
2016-Jan-28 23:33N 35°27' E 139°39'0 0.0
2016-Jan-28 22:33N 35°27' E 139°39'0 0.0
2016-Jan-28 21:33N 35°27' E 139°39'0 0.0
2016-Jan-28 20:33N 35°27' E 139°39'0 0.0
2016-Jan-28 08:21N 35°27' E 139°39'2 2.0
2016-Jan-28 07:33N 35°27' E 139°40'  
Track history (hours):
 
Tides and Currents Weather Stations Pressure Air Temp Water Temp Dewpoint Dewpoint Depression Visibility Wind Speed Wind Dir Waves Ship Positions

Sakura

Last reported at 2016-Feb-07 07:18 UTC. Time now 2016-Feb-07 17:26 UTC.
Position N 35°27' E 139°40'.

Length 32 m; draft 3.6 m.

Type: Tug. MMSI: 431101178.

Date/timePositionNaut miles runAvg speedWind from/ knotsBaromVisibWave heightAir tempDewpointWater temp
2016-Feb-07 07:18N 35°27' E 139°40'0 0.0
2016-Feb-07 06:33N 35°27' E 139°40'0 0.2
2016-Feb-07 05:33N 35°27' E 139°39'1 0.8
2016-Feb-07 04:33N 35°27' E 139°40'3 3.2
2016-Feb-07 03:33N 35°25' E 139°44'5 4.9
2016-Feb-07 02:33N 35°30' E 139°47'1 1.1
2016-Feb-07 01:33N 35°29' E 139°45'1 0.7
2016-Feb-07 00:33N 35°29' E 139°46'3 2.6
2016-Feb-06 23:33N 35°28' E 139°43'1 1.3
2016-Feb-06 22:34N 35°27' E 139°43'3 2.7
2016-Feb-06 21:33N 35°27' E 139°40'0 0.0
2016-Feb-06 20:33N 35°27' E 139°40'1 0.1
2016-Feb-06 08:04N 35°27' E 139°41'713.1
2016-Feb-06 07:33N 35°29' E 139°49'8 7.9
2016-Feb-06 06:33N 35°28' E 139°58'1 0.8
2016-Feb-06 05:33N 35°29' E 139°58'2 1.9
2016-Feb-06 04:34N 35°29' E 139°56'0 0.1
2016-Feb-06 03:33N 35°29' E 139°56'2 1.9
2016-Feb-06 02:33N 35°31' E 139°56'0 0.0
2016-Feb-06 01:33N 35°31' E 139°56'2 2.4
2016-Feb-06 00:33N 35°29' E 139°54'1 0.9
2016-Feb-05 23:33N 35°29' E 139°55'0 0.0
2016-Feb-05 22:33N 35°29' E 139°55'8 8.2
2016-Feb-05 21:34N 35°29' E 139°45'3 2.9
2016-Feb-05 20:33N 35°27' E 139°42'2 0.1
2016-Feb-05 07:08N 35°27' E 139°40'0 0.0
2016-Feb-05 06:33N 35°27' E 139°40'0 0.0
2016-Feb-05 05:33N 35°27' E 139°40'0 0.0
2016-Feb-05 04:33N 35°27' E 139°40'0 0.0
2016-Feb-05 03:33N 35°27' E 139°40'0 0.0
2016-Feb-05 02:33N 35°27' E 139°40'0 0.0
2016-Feb-05 01:33N 35°27' E 139°40'0 0.0
2016-Feb-05 00:33N 35°27' E 139°40'7 7.1
2016-Feb-04 23:33N 35°30' E 139°47'7 7.0
2016-Feb-04 22:33N 35°27' E 139°40'0 0.0
2016-Feb-04 07:12N 35°27' E 139°40'0 0.0
2016-Feb-04 06:33N 35°27' E 139°40'0 0.0
2016-Feb-04 05:33N 35°27' E 139°40'0 0.0
2016-Feb-04 04:33N 35°27' E 139°40'0 0.0
2016-Feb-04 03:33N 35°27' E 139°40'0 0.0
2016-Feb-04 02:33N 35°27' E 139°40'4 4.2
2016-Feb-04 01:33N 35°30' E 139°43'3 3.2
2016-Feb-04 00:33N 35°26' E 139°44'3 3.5
2016-Feb-03 23:33N 35°27' E 139°40'0 0.0
2016-Feb-03 22:33N 35°27' E 139°40'0 0.0
2016-Feb-03 21:33N 35°27' E 139°40'0 0.0
2016-Feb-03 20:33N 35°27' E 139°40'0 0.0
2016-Feb-03 19:33N 35°27' E 139°40'0 0.0
2016-Feb-03 18:33N 35°27' E 139°40'0 0.0
2016-Feb-03 17:33N 35°27' E 139°40'0 0.0
2016-Feb-03 16:33N 35°27' E 139°40'0 0.0
2016-Feb-03 15:33N 35°27' E 139°40'0 0.0
2016-Feb-03 14:33N 35°27' E 139°40'0 0.0
2016-Feb-03 13:33N 35°27' E 139°40'0 0.0
2016-Feb-03 12:33N 35°27' E 139°40'0 0.0
2016-Feb-03 11:33N 35°27' E 139°40'0 0.0
2016-Feb-03 10:33N 35°27' E 139°40'0 0.0
2016-Feb-03 09:33N 35°27' E 139°40'0 0.0
2016-Feb-03 08:33N 35°27' E 139°40'0 0.0
2016-Feb-03 07:33N 35°27' E 139°40'0 0.0
2016-Feb-03 06:34N 35°27' E 139°40'0 0.0
2016-Feb-03 05:33N 35°27' E 139°40'0 0.0
2016-Feb-03 04:33N 35°27' E 139°40'0 0.0
2016-Feb-03 03:34N 35°27' E 139°40'0 0.0
2016-Feb-03 02:34N 35°27' E 139°40'0 0.0
2016-Feb-03 01:34N 35°27' E 139°40'0 0.0
2016-Feb-03 00:33N 35°27' E 139°40'0 0.0
2016-Feb-02 23:33N 35°27' E 139°40'1 1.2
2016-Feb-02 22:34N 35°27' E 139°41'2 1.8
2016-Feb-02 21:34N 35°25' E 139°42'2 2.5
2016-Feb-02 20:34N 35°27' E 139°40'1 0.1
2016-Feb-02 08:21N 35°27' E 139°40'1 1.4
2016-Feb-02 07:34N 35°26' E 139°41'1 1.4
2016-Feb-02 06:34N 35°28' E 139°41'0 0.0
2016-Feb-02 05:34N 35°28' E 139°41'3 3.1
2016-Feb-02 04:34N 35°30' E 139°43'2 1.8
2016-Feb-02 03:34N 35°28' E 139°42'2 2.2
2016-Feb-02 02:34N 35°27' E 139°40'0 0.2
2016-Feb-02 01:34N 35°27' E 139°40'0 0.0
2016-Feb-02 00:33N 35°27' E 139°40'0 0.0
2016-Feb-01 23:33N 35°27' E 139°40'0 0.0
2016-Feb-01 22:33N 35°27' E 139°40'0 0.0
2016-Jan-31 23:33N 35°27' E 139°39'5 5.1
2016-Jan-31 22:33N 35°29' E 139°45'4 3.9
2016-Jan-31 21:34N 35°26' E 139°43'3 3.3
2016-Jan-31 20:33N 35°23' E 139°40'0 0.0
2016-Jan-31 19:33N 35°23' E 139°40'0 0.0
2016-Jan-31 18:33N 35°23' E 139°40'0 0.0
2016-Jan-31 17:33N 35°23' E 139°40'0 0.0
2016-Jan-31 16:33N 35°23' E 139°40'0 0.0
2016-Jan-31 15:33N 35°23' E 139°40'1 1.0
2016-Jan-31 14:34N 35°24' E 139°41'3 2.6
2016-Jan-31 13:33N 35°27' E 139°41'2 1.6
2016-Jan-31 12:33N 35°27' E 139°39'0 0.0
2016-Jan-31 11:33N 35°27' E 139°39'0 0.0
2016-Jan-31 10:33N 35°27' E 139°39'2 1.7
2016-Jan-31 09:33N 35°28' E 139°41'2 2.5
2016-Jan-31 08:33N 35°26' E 139°44'4 3.8
2016-Jan-31 07:33N 35°27' E 139°39'0 0.0
2016-Jan-31 06:33N 35°27' E 139°39'0 0.0
2016-Jan-31 05:33N 35°27' E 139°39'1 0.6
2016-Jan-31 04:33N 35°28' E 139°39'4 3.7
2016-Jan-31 03:33N 35°24' E 139°39'2 2.3
2016-Jan-31 02:33N 35°24' E 139°41'4 3.7
2016-Jan-31 01:33N 35°27' E 139°39'1 0.7
2016-Jan-31 00:33N 35°27' E 139°39'0 0.0
2016-Jan-30 23:33N 35°27' E 139°39'0 0.0
2016-Jan-30 22:33N 35°27' E 139°39'0 0.0
2016-Jan-30 21:33N 35°27' E 139°39'4 0.3
2016-Jan-30 07:34N 35°24' E 139°41'3 2.8
2016-Jan-30 06:34N 35°24' E 139°38'3 3.2
2016-Jan-30 05:33N 35°22' E 139°41'3 3.0
2016-Jan-30 04:33N 35°25' E 139°42'3 3.0
2016-Jan-30 03:34N 35°28' E 139°42'2 1.7
2016-Jan-30 02:33N 35°28' E 139°41'0 0.0
2016-Jan-30 01:33N 35°28' E 139°41'0 0.0
2016-Jan-30 00:34N 35°28' E 139°41'2 1.6
2016-Jan-29 23:33N 35°29' E 139°39'1 1.5
2016-Jan-29 22:33N 35°28' E 139°40'2 1.5
2016-Jan-29 21:33N 35°26' E 139°41'2 2.1
2016-Jan-29 20:34N 35°27' E 139°39'0 0.0
2016-Jan-29 09:32N 35°27' E 139°39'3 2.6
2016-Jan-29 08:33N 35°25' E 139°41'2 2.2
2016-Jan-29 07:33N 35°28' E 139°40'0 0.0
2016-Jan-29 06:33N 35°28' E 139°40'1 1.3
2016-Jan-29 05:34N 35°27' E 139°41'4 3.8
2016-Jan-29 04:33N 35°24' E 139°38'1 1.3
2016-Jan-29 03:33N 35°24' E 139°40'3 2.6
2016-Jan-29 02:33N 35°26' E 139°42'3 2.9
2016-Jan-29 01:33N 35°27' E 139°39'0 0.0
2016-Jan-29 00:33N 35°27' E 139°39'0 0.0
2016-Jan-28 23:33N 35°27' E 139°39'0 0.0
2016-Jan-28 22:33N 35°27' E 139°39'0 0.0
2016-Jan-28 21:33N 35°27' E 139°39'0 0.0
2016-Jan-28 20:33N 35°27' E 139°39'0 0.0
2016-Jan-28 08:21N 35°27' E 139°39'2 2.0
2016-Jan-28 07:33N 35°27' E 139°40'  

Dump ship's entire track history